Monte Grande, Argentina
Current Conditions -  °F | °C
As of 1:00 AM on Tuesday 21 Oct 2014 (Local Time) from SAEZ Reporting Station
Clear Clear  
Wind Chill: 64°   Ceiling: Unl
Heat Index: 64°   Visibility: 6mi
Dew Point: 55°   Wind: 7mph
Humidity: 73%   Direction: 70°ENE
Pressure: 30.09"   Gusts: NA
Location:  34.83°S, 58.47°W
Report Text: SAEZ 210400Z 07006KT CAVOK 18/13 Q1019
Loading
Personal Weather Stations






























Interactive Weather Map
Tropical Storm Tracking
New forecast layout! Learn more

10-Day Weather Forecast

Advertisements
Track Severe Weather on mobile